Cedar Valley, Iowa
Current Conditions -  °F | °C
As of 3:52 AM on Saturday 29 Nov 2014 (Local Time) from KIOW Reporting Station
Clear Clear  
Wind Chill: 29°   Ceiling: Unl
Heat Index: 29°   Visibility: 7mi
Dew Point: 28°   Wind: 3mph
Humidity: 96%   Direction: 130°SE
Pressure: 29.66"   Gusts: NA
Location:  41.6714°N, 91.2723°W
Report Text: KIOW 290952Z AUTO 13003KT 7SM CLR M02/M02 A2966 RMK AO2 SLP050 T10171022
Loading
Personal Weather Stations






























Interactive Weather Map New forecast layout! Learn more

10-Day Weather Forecast

Advertisements
Track Severe Weather on mobile